sensor_id;sensor_type;location;lat;lon;timestamp;pressure;altitude;pressure_sealevel;temperature;humidity
83104;BME280;72975;48.134;11.630;2024-01-30T00:01:46;96881.66;;;2.23;64.42
83104;BME280;72975;48.134;11.630;2024-01-30T00:13:40;96896.13;;;2.53;62.88
83104;BME280;72975;48.134;11.630;2024-01-30T00:28:38;96894.47;;;1.78;66.40
83104;BME280;72975;48.134;11.630;2024-01-30T00:37:44;96895.28;;;1.79;66.33
83104;BME280;72975;48.134;11.630;2024-01-30T00:40:46;96892.88;;;1.77;66.43
83104;BME280;72975;48.134;11.630;2024-01-30T00:43:27;96887.81;;;1.69;66.44
83104;BME280;72975;48.134;11.630;2024-01-30T00:46:10;96890.31;;;1.77;66.14
83104;BME280;72975;48.134;11.630;2024-01-30T00:49:11;96889.09;;;1.51;67.35
83104;BME280;72975;48.134;11.630;2024-01-30T00:52:15;96889.66;;;1.75;66.33
83104;BME280;72975;48.134;11.630;2024-01-30T00:55:22;96892.97;;;1.84;65.71
83104;BME280;72975;48.134;11.630;2024-01-30T00:58:47;96887.41;;;1.58;66.73
83104;BME280;72975;48.134;11.630;2024-01-30T01:01:25;96891.09;;;1.78;65.75
83104;BME280;72975;48.134;11.630;2024-01-30T01:04:06;96888.81;;;1.83;65.40
83104;BME280;72975;48.134;11.630;2024-01-30T01:07:19;96884.13;;;2.01;64.83
83104;BME280;72975;48.134;11.630;2024-01-30T01:22:31;96890.53;;;2.05;64.08
83104;BME280;72975;48.134;11.630;2024-01-30T01:30:16;96893.59;;;1.86;65.30
83104;BME280;72975;48.134;11.630;2024-01-30T01:37:22;96889.84;;;1.74;65.97
83104;BME280;72975;48.134;11.630;2024-01-30T01:40:37;96891.84;;;1.64;66.22
83104;BME280;72975;48.134;11.630;2024-01-30T01:47:30;96882.09;;;1.59;66.13
83104;BME280;72975;48.134;11.630;2024-01-30T01:50:34;96878.38;;;1.62;66.62
83104;BME280;72975;48.134;11.630;2024-01-30T01:53:39;96877.16;;;1.72;66.22
83104;BME280;72975;48.134;11.630;2024-01-30T01:57:25;96889.81;;;1.36;66.72
83104;BME280;72975;48.134;11.630;2024-01-30T02:00:07;96890.84;;;1.73;66.13
83104;BME280;72975;48.134;11.630;2024-01-30T02:06:05;96820.31;;;1.07;66.49
83104;BME280;72975;48.134;11.630;2024-01-30T02:09:06;96890.78;;;1.58;66.89
83104;BME280;72975;48.134;11.630;2024-01-30T02:12:48;96888.78;;;1.45;67.40
83104;BME280;72975;48.134;11.630;2024-01-30T02:15:39;96886.84;;;1.48;67.35
83104;BME280;72975;48.134;11.630;2024-01-30T02:19:23;96883.69;;;1.60;66.63
83104;BME280;72975;48.134;11.630;2024-01-30T02:22:55;96888.13;;;1.66;66.48
83104;BME280;72975;48.134;11.630;2024-01-30T02:26:11;96883.81;;;1.44;67.21
83104;BME280;72975;48.134;11.630;2024-01-30T02:29:29;96890.22;;;1.25;68.03
83104;BME280;72975;48.134;11.630;2024-01-30T02:32:40;96891.91;;;1.10;68.66
83104;BME280;72975;48.134;11.630;2024-01-30T02:42:13;96887.34;;;1.20;67.72
83104;BME280;72975;48.134;11.630;2024-01-30T02:45:05;96885.25;;;1.46;67.02
83104;BME280;72975;48.134;11.630;2024-01-30T02:48:02;96882.41;;;0.88;68.77
83104;BME280;72975;48.134;11.630;2024-01-30T02:51:12;96881.81;;;1.54;66.60
83104;BME280;72975;48.134;11.630;2024-01-30T02:54:40;96885.72;;;1.27;67.54
83104;BME280;72975;48.134;11.630;2024-01-30T02:57:33;96883.81;;;1.21;67.47
83104;BME280;72975;48.134;11.630;2024-01-30T03:00:22;96811.78;;;0.84;67.41
83104;BME280;72975;48.134;11.630;2024-01-30T03:03:17;96870.16;;;1.43;66.40
83104;BME280;72975;48.134;11.630;2024-01-30T03:05:58;96868.34;;;1.29;66.91
83104;BME280;72975;48.134;11.630;2024-01-30T03:09:33;96870.66;;;1.62;65.26
83104;BME280;72975;48.134;11.630;2024-01-30T03:13:09;96867.94;;;0.87;67.77
83104;BME280;72975;48.134;11.630;2024-01-30T03:19:10;96863.88;;;1.23;66.87
83104;BME280;72975;48.134;11.630;2024-01-30T03:22:03;96860.63;;;1.29;66.03
83104;BME280;72975;48.134;11.630;2024-01-30T03:24:49;96859.03;;;1.28;65.62
83104;BME280;72975;48.134;11.630;2024-01-30T03:28:01;96860.63;;;1.06;66.41
83104;BME280;72975;48.134;11.630;2024-01-30T03:30:42;96857.81;;;1.16;66.05
83104;BME280;72975;48.134;11.630;2024-01-30T03:33:37;96779.78;;;0.63;66.26
83104;BME280;72975;48.134;11.630;2024-01-30T03:36:25;96865.88;;;1.13;66.08
83104;BME280;72975;48.134;11.630;2024-01-30T03:39:40;96851.88;;;1.38;65.18
83104;BME280;72975;48.134;11.630;2024-01-30T03:53:26;96859.50;;;1.69;63.19
83104;BME280;72975;48.134;11.630;2024-01-30T03:57:08;96860.13;;;1.71;62.84
83104;BME280;72975;48.134;11.630;2024-01-30T03:59:58;96861.38;;;1.75;62.74
83104;BME280;72975;48.134;11.630;2024-01-30T04:07:18;96862.03;;;1.09;65.65
83104;BME280;72975;48.134;11.630;2024-01-30T04:09:53;96856.06;;;1.17;65.17
83104;BME280;72975;48.134;11.630;2024-01-30T04:12:32;96856.78;;;1.25;64.90
83104;BME280;72975;48.134;11.630;2024-01-30T04:15:13;96854.97;;;1.34;64.54
83104;BME280;72975;48.134;11.630;2024-01-30T04:18:00;96855.19;;;1.24;64.23
83104;BME280;72975;48.134;11.630;2024-01-30T04:20:29;96852.38;;;1.34;63.88
83104;BME280;72975;48.134;11.630;2024-01-30T04:23:15;96858.72;;;1.46;63.44
83104;BME280;72975;48.134;11.630;2024-01-30T04:30:13;96850.63;;;1.34;63.80
83104;BME280;72975;48.134;11.630;2024-01-30T04:35:27;96854.72;;;1.21;63.64
83104;BME280;72975;48.134;11.630;2024-01-30T04:38:10;96856.97;;;1.46;62.92
83104;BME280;72975;48.134;11.630;2024-01-30T04:41:05;96848.22;;;1.33;63.04
83104;BME280;72975;48.134;11.630;2024-01-30T04:44:13;96850.66;;;1.49;62.35
83104;BME280;72975;48.134;11.630;2024-01-30T04:47:20;96855.97;;;1.70;61.40
83104;BME280;72975;48.134;11.630;2024-01-30T04:53:15;96852.50;;;1.78;60.61
83104;BME280;72975;48.134;11.630;2024-01-30T04:56:46;96850.91;;;2.06;60.07
83104;BME280;72975;48.134;11.630;2024-01-30T04:59:47;96879.94;;;1.86;60.24
83104;BME280;72975;48.134;11.630;2024-01-30T05:03:07;96856.34;;;1.97;59.92
83104;BME280;72975;48.134;11.630;2024-01-30T05:06:04;96857.69;;;1.93;60.24
83104;BME280;72975;48.134;11.630;2024-01-30T05:12:15;96860.50;;;1.83;60.60
83104;BME280;72975;48.134;11.630;2024-01-30T05:23:07;96860.31;;;1.70;61.12
83104;BME280;72975;48.134;11.630;2024-01-30T05:26:06;96859.94;;;1.35;62.70
83104;BME280;72975;48.134;11.630;2024-01-30T05:28:53;96861.63;;;1.43;62.10
83104;BME280;72975;48.134;11.630;2024-01-30T05:40:20;96866.06;;;1.72;61.13
83104;BME280;72975;48.134;11.630;2024-01-30T05:43:22;96868.28;;;1.37;62.27
83104;BME280;72975;48.134;11.630;2024-01-30T05:46:33;96868.75;;;1.78;61.21
83104;BME280;72975;48.134;11.630;2024-01-30T05:53:09;96879.63;;;1.66;61.85
83104;BME280;72975;48.134;11.630;2024-01-30T05:55:47;96885.69;;;1.73;61.61
83104;BME280;72975;48.134;11.630;2024-01-30T05:58:44;96882.75;;;1.76;61.29
83104;BME280;72975;48.134;11.630;2024-01-30T06:01:26;96879.06;;;1.56;61.76
83104;BME280;72975;48.134;11.630;2024-01-30T06:04:08;96884.34;;;1.77;61.36
83104;BME280;72975;48.134;11.630;2024-01-30T06:07:02;96883.56;;;1.76;61.38
83104;BME280;72975;48.134;11.630;2024-01-30T06:09:35;96883.13;;;1.73;61.56
83104;BME280;72975;48.134;11.630;2024-01-30T06:15:21;96883.66;;;1.83;60.99
83104;BME280;72975;48.134;11.630;2024-01-30T06:18:01;96887.72;;;1.77;60.99
83104;BME280;72975;48.134;11.630;2024-01-30T06:20:43;96884.13;;;2.01;60.48
83104;BME280;72975;48.134;11.630;2024-01-30T06:23:49;96891.44;;;1.75;60.98
83104;BME280;72975;48.134;11.630;2024-01-30T06:26:52;96881.28;;;1.81;60.83
83104;BME280;72975;48.134;11.630;2024-01-30T06:29:38;96891.72;;;1.80;60.90
83104;BME280;72975;48.134;11.630;2024-01-30T06:32:50;96893.59;;;1.86;60.58
83104;BME280;72975;48.134;11.630;2024-01-30T06:35:45;96892.50;;;1.66;61.00
83104;BME280;72975;48.134;11.630;2024-01-30T06:38:26;96889.38;;;1.93;60.29
83104;BME280;72975;48.134;11.630;2024-01-30T06:41:01;96883.34;;;2.01;59.84
83104;BME280;72975;48.134;11.630;2024-01-30T06:43:43;96892.50;;;2.03;59.73
83104;BME280;72975;48.134;11.630;2024-01-30T06:46:51;96894.56;;;1.48;62.00
83104;BME280;72975;48.134;11.630;2024-01-30T06:49:54;96898.91;;;1.70;61.10
83104;BME280;72975;48.134;11.630;2024-01-30T06:52:47;96896.59;;;1.75;60.86
83104;BME280;72975;48.134;11.630;2024-01-30T06:55:32;96903.84;;;1.94;60.48
83104;BME280;72975;48.134;11.630;2024-01-30T06:58:12;96904.22;;;1.45;61.78
83104;BME280;72975;48.134;11.630;2024-01-30T07:01:14;96910.50;;;2.03;60.36
83104;BME280;72975;48.134;11.630;2024-01-30T07:04:06;96907.94;;;2.18;59.65
83104;BME280;72975;48.134;11.630;2024-01-30T07:06:50;96904.38;;;2.19;59.11
83104;BME280;72975;48.134;11.630;2024-01-30T07:09:40;96910.19;;;2.36;58.82
83104;BME280;72975;48.134;11.630;2024-01-30T07:12:13;96908.94;;;2.46;58.68
83104;BME280;72975;48.134;11.630;2024-01-30T07:15:03;96909.72;;;2.62;57.90
83104;BME280;72975;48.134;11.630;2024-01-30T07:17:30;96912.03;;;2.71;57.46
83104;BME280;72975;48.134;11.630;2024-01-30T07:19:58;96914.00;;;2.54;58.62
83104;BME280;72975;48.134;11.630;2024-01-30T07:22:25;96911.66;;;2.74;58.03
83104;BME280;72975;48.134;11.630;2024-01-30T07:24:53;96915.06;;;2.75;57.39
83104;BME280;72975;48.134;11.630;2024-01-30T07:27:25;96914.34;;;2.81;57.29
83104;BME280;72975;48.134;11.630;2024-01-30T07:29:55;96916.50;;;3.13;56.40
83104;BME280;72975;48.134;11.630;2024-01-30T07:32:25;96912.84;;;3.22;55.65
83104;BME280;72975;48.134;11.630;2024-01-30T07:34:56;96915.84;;;3.47;55.05
83104;BME280;72975;48.134;11.630;2024-01-30T07:37:37;96922.75;;;3.25;55.75
83104;BME280;72975;48.134;11.630;2024-01-30T07:40:11;96923.66;;;2.97;56.50
83104;BME280;72975;48.134;11.630;2024-01-30T07:42:39;96921.97;;;3.46;55.85
83104;BME280;72975;48.134;11.630;2024-01-30T07:45:09;96917.03;;;3.66;54.97
83104;BME280;72975;48.134;11.630;2024-01-30T07:47:37;96913.56;;;3.80;53.83
83104;BME280;72975;48.134;11.630;2024-01-30T07:50:05;96923.22;;;4.21;52.91
83104;BME280;72975;48.134;11.630;2024-01-30T07:52:59;96923.88;;;4.29;52.51
83104;BME280;72975;48.134;11.630;2024-01-30T07:55:44;96926.16;;;4.46;51.15
83104;BME280;72975;48.134;11.630;2024-01-30T07:58:25;96928.16;;;4.85;50.68
83104;BME280;72975;48.134;11.630;2024-01-30T08:00:58;96923.25;;;4.96;50.73
83104;BME280;72975;48.134;11.630;2024-01-30T08:03:33;96929.47;;;5.15;51.58
83104;BME280;72975;48.134;11.630;2024-01-30T08:06:10;96923.59;;;5.54;49.72
83104;BME280;72975;48.134;11.630;2024-01-30T08:09:00;96931.84;;;6.23;48.02
83104;BME280;72975;48.134;11.630;2024-01-30T08:12:16;96924.25;;;7.06;45.10
83104;BME280;72975;48.134;11.630;2024-01-30T08:14:56;96924.78;;;6.64;46.03
83104;BME280;72975;48.134;11.630;2024-01-30T08:17:33;96923.03;;;6.44;46.51
83104;BME280;72975;48.134;11.630;2024-01-30T08:20:16;96926.00;;;6.54;47.00
83104;BME280;72975;48.134;11.630;2024-01-30T08:22:54;96928.78;;;6.66;46.24
83104;BME280;72975;48.134;11.630;2024-01-30T08:25:38;96927.38;;;6.70;46.40
83104;BME280;72975;48.134;11.630;2024-01-30T08:32:17;96925.88;;;7.45;45.61
83104;BME280;72975;48.134;11.630;2024-01-30T08:34:45;96923.03;;;8.10;43.27
83104;BME280;72975;48.134;11.630;2024-01-30T08:38:06;96916.72;;;8.67;41.68
83104;BME280;72975;48.134;11.630;2024-01-30T08:51:14;96923.22;;;11.24;36.45
83104;BME280;72975;48.134;11.630;2024-01-30T09:02:28;96922.94;;;12.88;33.25
83104;BME280;72975;48.134;11.630;2024-01-30T09:14:57;96934.72;;;13.77;31.92
83104;BME280;72975;48.134;11.630;2024-01-30T09:26:38;96943.81;;;13.97;31.84
83104;BME280;72975;48.134;11.630;2024-01-30T09:33:13;96946.13;;;14.20;31.58
83104;BME280;72975;48.134;11.630;2024-01-30T09:35:52;96951.59;;;14.13;31.99
83104;BME280;72975;48.134;11.630;2024-01-30T09:38:50;96947.38;;;14.86;31.05
83104;BME280;72975;48.134;11.630;2024-01-30T09:44:46;96947.38;;;15.44;30.18
83104;BME280;72975;48.134;11.630;2024-01-30T09:47:19;96944.28;;;15.57;29.75
83104;BME280;72975;48.134;11.630;2024-01-30T09:50:14;96955.41;;;15.89;30.12
83104;BME280;72975;48.134;11.630;2024-01-30T09:56:13;96945.94;;;15.88;29.27
83104;BME280;72975;48.134;11.630;2024-01-30T09:58:44;96953.03;;;16.03;29.43
83104;BME280;72975;48.134;11.630;2024-01-30T10:01:27;96953.84;;;16.09;28.76
83104;BME280;72975;48.134;11.630;2024-01-30T10:04:06;96951.75;;;16.11;28.89
83104;BME280;72975;48.134;11.630;2024-01-30T10:06:37;96946.47;;;16.16;28.76
83104;BME280;72975;48.134;11.630;2024-01-30T10:09:04;96944.84;;;16.81;28.42
83104;BME280;72975;48.134;11.630;2024-01-30T10:11:32;96943.84;;;16.31;28.74
83104;BME280;72975;48.134;11.630;2024-01-30T10:14:09;96945.94;;;16.19;28.36
83104;BME280;72975;48.134;11.630;2024-01-30T10:16:37;96936.19;;;16.50;28.08
83104;BME280;72975;48.134;11.630;2024-01-30T10:19:07;96938.56;;;16.41;28.10
83104;BME280;72975;48.134;11.630;2024-01-30T10:21:39;96939.88;;;16.43;28.19
83104;BME280;72975;48.134;11.630;2024-01-30T10:24:07;96934.78;;;17.03;27.62
83104;BME280;72975;48.134;11.630;2024-01-30T10:26:35;96932.78;;;16.29;28.52
83104;BME280;72975;48.134;11.630;2024-01-30T10:29:10;96933.56;;;16.55;28.17
83104;BME280;72975;48.134;11.630;2024-01-30T10:31:38;96931.72;;;16.30;27.94
83104;BME280;72975;48.134;11.630;2024-01-30T10:34:06;96929.50;;;17.57;26.73
83104;BME280;72975;48.134;11.630;2024-01-30T10:37:10;96928.69;;;17.02;26.50
83104;BME280;72975;48.134;11.630;2024-01-30T10:39:54;96927.38;;;17.05;27.01
83104;BME280;72975;48.134;11.630;2024-01-30T10:42:32;96910.88;;;16.54;27.39
83104;BME280;72975;48.134;11.630;2024-01-30T10:45:08;96912.34;;;17.55;26.78
83104;BME280;72975;48.134;11.630;2024-01-30T10:47:54;96910.38;;;16.26;27.02
83104;BME280;72975;48.134;11.630;2024-01-30T10:50:31;96898.22;;;16.46;26.99
83104;BME280;72975;48.134;11.630;2024-01-30T10:53:22;96900.84;;;16.71;27.90
83104;BME280;72975;48.134;11.630;2024-01-30T10:56:37;96904.78;;;16.78;27.16
83104;BME280;72975;48.134;11.630;2024-01-30T10:59:12;96899.94;;;17.01;26.78
83104;BME280;72975;48.134;11.630;2024-01-30T11:05:24;96880.59;;;16.41;26.68
83104;BME280;72975;48.134;11.630;2024-01-30T11:08:22;96885.34;;;16.34;27.29
83104;BME280;72975;48.134;11.630;2024-01-30T11:11:17;96888.06;;;17.58;26.25
83104;BME280;72975;48.134;11.630;2024-01-30T11:14:31;96877.75;;;17.12;26.69
83104;BME280;72975;48.134;11.630;2024-01-30T11:17:21;96882.19;;;17.71;26.09
83104;BME280;72975;48.134;11.630;2024-01-30T11:20:27;96882.38;;;17.84;25.73
83104;BME280;72975;48.134;11.630;2024-01-30T11:23:11;96875.06;;;17.71;25.03
83104;BME280;72975;48.134;11.630;2024-01-30T11:26:01;96870.50;;;17.33;25.95
83104;BME280;72975;48.134;11.630;2024-01-30T11:28:33;96868.34;;;17.45;25.35
83104;BME280;72975;48.134;11.630;2024-01-30T11:31:07;96870.59;;;17.67;24.85
83104;BME280;72975;48.134;11.630;2024-01-30T11:33:56;96860.47;;;18.13;24.86
83104;BME280;72975;48.134;11.630;2024-01-30T11:36:28;96860.13;;;17.51;25.33
83104;BME280;72975;48.134;11.630;2024-01-30T11:39:19;96854.00;;;17.17;24.76
83104;BME280;72975;48.134;11.630;2024-01-30T11:41:51;96858.06;;;18.16;24.93
83104;BME280;72975;48.134;11.630;2024-01-30T11:44:21;96860.34;;;17.60;25.14
83104;BME280;72975;48.134;11.630;2024-01-30T11:47:02;96862.19;;;17.15;25.56
83104;BME280;72975;48.134;11.630;2024-01-30T11:50:02;96858.63;;;17.35;25.16
83104;BME280;72975;48.134;11.630;2024-01-30T11:52:48;96851.59;;;17.99;24.19
83104;BME280;72975;48.134;11.630;2024-01-30T11:55:23;96845.44;;;18.08;24.07
83104;BME280;72975;48.134;11.630;2024-01-30T11:58:08;96813.06;;;17.64;24.10
83104;BME280;72975;48.134;11.630;2024-01-30T12:00:36;96851.63;;;17.60;24.59
83104;BME280;72975;48.134;11.630;2024-01-30T12:03:04;96848.69;;;17.66;25.79
83104;BME280;72975;48.134;11.630;2024-01-30T12:05:37;96839.31;;;17.45;24.93
83104;BME280;72975;48.134;11.630;2024-01-30T12:08:15;96837.25;;;17.37;25.86
83104;BME280;72975;48.134;11.630;2024-01-30T12:10:58;96837.03;;;17.28;25.36
83104;BME280;72975;48.134;11.630;2024-01-30T12:13:47;96840.94;;;17.36;25.38
83104;BME280;72975;48.134;11.630;2024-01-30T12:16:28;96833.44;;;17.09;25.37
83104;BME280;72975;48.134;11.630;2024-01-30T12:19:08;96832.19;;;17.45;24.44
83104;BME280;72975;48.134;11.630;2024-01-30T12:21:55;96828.00;;;17.39;24.03
83104;BME280;72975;48.134;11.630;2024-01-30T12:24:27;96829.59;;;17.40;24.74
83104;BME280;72975;48.134;11.630;2024-01-30T12:26:58;96826.06;;;17.89;24.07
83104;BME280;72975;48.134;11.630;2024-01-30T12:29:34;96819.28;;;17.78;23.38
83104;BME280;72975;48.134;11.630;2024-01-30T12:32:20;96811.09;;;17.79;24.39
83104;BME280;72975;48.134;11.630;2024-01-30T12:35:18;96811.16;;;18.03;24.38
83104;BME280;72975;48.134;11.630;2024-01-30T12:37:54;96818.66;;;17.91;23.81
83104;BME280;72975;48.134;11.630;2024-01-30T12:40:28;96811.16;;;18.03;23.54
83104;BME280;72975;48.134;11.630;2024-01-30T12:43:02;96808.25;;;17.32;23.82
83104;BME280;72975;48.134;11.630;2024-01-30T12:45:58;96800.78;;;17.83;24.09
83104;BME280;72975;48.134;11.630;2024-01-30T12:48:44;96802.66;;;17.38;23.83
83104;BME280;72975;48.134;11.630;2024-01-30T12:51:22;96812.00;;;17.21;23.41
83104;BME280;72975;48.134;11.630;2024-01-30T12:53:57;96806.19;;;17.24;24.26
83104;BME280;72975;48.134;11.630;2024-01-30T12:56:31;96802.94;;;16.98;24.50
83104;BME280;72975;48.134;11.630;2024-01-30T12:59:02;96796.41;;;16.80;24.49
83104;BME280;72975;48.134;11.630;2024-01-30T13:01:30;96788.28;;;16.66;24.68
83104;BME280;72975;48.134;11.630;2024-01-30T13:04:04;96795.69;;;16.64;24.63
83104;BME280;72975;48.134;11.630;2024-01-30T13:06:38;96801.28;;;17.07;24.65
83104;BME280;72975;48.134;11.630;2024-01-30T13:09:05;96791.47;;;16.58;24.99
83104;BME280;72975;48.134;11.630;2024-01-30T13:11:33;96791.44;;;16.73;24.94
83104;BME280;72975;48.134;11.630;2024-01-30T13:14:02;96792.56;;;16.52;25.28
83104;BME280;72975;48.134;11.630;2024-01-30T13:16:35;96795.09;;;16.77;25.11
83104;BME280;72975;48.134;11.630;2024-01-30T13:19:05;96795.88;;;16.83;25.09
83104;BME280;72975;48.134;11.630;2024-01-30T13:21:33;96790.16;;;17.10;24.67
83104;BME280;72975;48.134;11.630;2024-01-30T13:24:01;96791.28;;;16.99;25.04
83104;BME280;72975;48.134;11.630;2024-01-30T13:26:29;96789.91;;;17.11;24.96
83104;BME280;72975;48.134;11.630;2024-01-30T13:28:58;96789.56;;;17.23;24.35
83104;BME280;72975;48.134;11.630;2024-01-30T13:31:28;96794.97;;;17.08;25.06
83104;BME280;72975;48.134;11.630;2024-01-30T13:33:57;96795.50;;;17.05;25.61
83104;BME280;72975;48.134;11.630;2024-01-30T13:36:29;96793.50;;;16.76;27.63
83104;BME280;72975;48.134;11.630;2024-01-30T13:39:07;96792.25;;;16.59;28.89
83104;BME280;72975;48.134;11.630;2024-01-30T13:41:37;96801.78;;;17.09;28.77
83104;BME280;72975;48.134;11.630;2024-01-30T13:44:05;96803.47;;;16.95;30.22
83104;BME280;72975;48.134;11.630;2024-01-30T13:46:32;96800.97;;;16.54;28.68
83104;BME280;72975;48.134;11.630;2024-01-30T13:49:03;96795.94;;;16.68;28.93
83104;BME280;72975;48.134;11.630;2024-01-30T13:51:33;96805.19;;;16.65;28.83
83104;BME280;72975;48.134;11.630;2024-01-30T13:54:19;96801.88;;;16.14;29.95
83104;BME280;72975;48.134;11.630;2024-01-30T13:57:02;96801.63;;;16.05;30.15
83104;BME280;72975;48.134;11.630;2024-01-30T13:59:43;96796.56;;;16.29;29.77
83104;BME280;72975;48.134;11.630;2024-01-30T14:02:13;96801.78;;;16.44;29.58
83104;BME280;72975;48.134;11.630;2024-01-30T14:04:43;96801.78;;;16.50;29.95
83104;BME280;72975;48.134;11.630;2024-01-30T14:07:15;96796.34;;;16.21;30.21
83104;BME280;72975;48.134;11.630;2024-01-30T14:09:51;96796.66;;;15.89;30.62
83104;BME280;72975;48.134;11.630;2024-01-30T14:12:22;96801.84;;;16.24;30.80
83104;BME280;72975;48.134;11.630;2024-01-30T14:14:51;96802.38;;;16.16;30.55
83104;BME280;72975;48.134;11.630;2024-01-30T14:17:20;96796.09;;;15.92;30.99
83104;BME280;72975;48.134;11.630;2024-01-30T14:20:07;96760.31;;;15.30;31.99
83104;BME280;72975;48.134;11.630;2024-01-30T14:22:38;96794.53;;;15.86;31.85
83104;BME280;72975;48.134;11.630;2024-01-30T14:25:08;96802.94;;;15.93;31.90
83104;BME280;72975;48.134;11.630;2024-01-30T14:27:36;96803.75;;;15.88;31.68
83104;BME280;72975;48.134;11.630;2024-01-30T14:30:04;96757.69;;;15.40;32.31
83104;BME280;72975;48.134;11.630;2024-01-30T14:32:32;96807.19;;;15.74;32.37
83104;BME280;72975;48.134;11.630;2024-01-30T14:35:00;96805.81;;;15.30;33.20
83104;BME280;72975;48.134;11.630;2024-01-30T14:37:31;96815.25;;;15.11;33.29
83104;BME280;72975;48.134;11.630;2024-01-30T14:39:59;96815.50;;;15.10;33.56
83104;BME280;72975;48.134;11.630;2024-01-30T14:42:34;96822.59;;;15.14;33.87
83104;BME280;72975;48.134;11.630;2024-01-30T14:45:05;96830.22;;;15.16;33.58
83104;BME280;72975;48.134;11.630;2024-01-30T14:47:36;96794.75;;;15.03;33.40
83104;BME280;72975;48.134;11.630;2024-01-30T14:50:05;96826.81;;;15.10;34.01
83104;BME280;72975;48.134;11.630;2024-01-30T14:52:38;96828.09;;;14.97;34.20
83104;BME280;72975;48.134;11.630;2024-01-30T14:55:08;96834.38;;;14.34;35.44
83104;BME280;72975;48.134;11.630;2024-01-30T14:57:38;96828.00;;;14.25;35.84
83104;BME280;72975;48.134;11.630;2024-01-30T15:00:09;96830.28;;;14.48;35.57
83104;BME280;72975;48.134;11.630;2024-01-30T15:02:38;96828.66;;;14.42;35.93
83104;BME280;72975;48.134;11.630;2024-01-30T15:05:06;96837.78;;;14.35;36.08
83104;BME280;72975;48.134;11.630;2024-01-30T15:07:34;96835.00;;;14.09;37.02
83104;BME280;72975;48.134;11.630;2024-01-30T15:10:08;96833.88;;;14.00;37.30
83104;BME280;72975;48.134;11.630;2024-01-30T15:12:39;96832.91;;;13.74;37.85
83104;BME280;72975;48.134;11.630;2024-01-30T15:15:08;96839.94;;;14.01;37.18
83104;BME280;72975;48.134;11.630;2024-01-30T15:17:38;96838.28;;;13.89;36.71
83104;BME280;72975;48.134;11.630;2024-01-30T15:20:09;96841.94;;;13.57;37.27
83104;BME280;72975;48.134;11.630;2024-01-30T15:22:39;96843.69;;;13.78;36.34
83104;BME280;72975;48.134;11.630;2024-01-30T15:25:12;96847.16;;;13.83;36.53
83104;BME280;72975;48.134;11.630;2024-01-30T15:27:47;96853.25;;;13.30;36.63
83104;BME280;72975;48.134;11.630;2024-01-30T15:30:19;96855.28;;;13.55;35.42
83104;BME280;72975;48.134;11.630;2024-01-30T15:32:49;96859.13;;;13.15;36.07
83104;BME280;72975;48.134;11.630;2024-01-30T15:35:16;96859.22;;;12.82;36.82
83104;BME280;72975;48.134;11.630;2024-01-30T15:37:47;96862.09;;;12.80;37.31
83104;BME280;72975;48.134;11.630;2024-01-30T15:43:27;96860.72;;;12.56;39.72
83104;BME280;72975;48.134;11.630;2024-01-30T15:45:55;96862.63;;;12.61;41.19
83104;BME280;72975;48.134;11.630;2024-01-30T15:48:58;96861.34;;;12.41;41.41
83104;BME280;72975;48.134;11.630;2024-01-30T15:51:39;96865.84;;;12.46;41.34
83104;BME280;72975;48.134;11.630;2024-01-30T15:54:28;96869.28;;;12.13;42.85
83104;BME280;72975;48.134;11.630;2024-01-30T15:56:56;96871.03;;;11.91;43.75
83104;BME280;72975;48.134;11.630;2024-01-30T15:59:30;96872.03;;;11.73;44.16
83104;BME280;72975;48.134;11.630;2024-01-30T16:01:58;96877.03;;;11.75;44.58
83104;BME280;72975;48.134;11.630;2024-01-30T16:04:29;96878.81;;;11.86;44.37
83104;BME280;72975;48.134;11.630;2024-01-30T16:06:57;96879.31;;;11.99;44.45
83104;BME280;72975;48.134;11.630;2024-01-30T16:09:27;96887.97;;;11.71;45.24
83104;BME280;72975;48.134;11.630;2024-01-30T16:12:07;96887.03;;;11.32;46.15
83104;BME280;72975;48.134;11.630;2024-01-30T16:14:38;96890.56;;;11.26;46.01
83104;BME280;72975;48.134;11.630;2024-01-30T16:17:24;96900.03;;;11.16;46.00
83104;BME280;72975;48.134;11.630;2024-01-30T16:20:28;96897.91;;;11.13;46.44
83104;BME280;72975;48.134;11.630;2024-01-30T16:23:01;96901.03;;;10.86;47.69
83104;BME280;72975;48.134;11.630;2024-01-30T16:26:09;96903.94;;;11.42;45.81
83104;BME280;72975;48.134;11.630;2024-01-30T16:29:07;96897.91;;;11.41;45.38
83104;BME280;72975;48.134;11.630;2024-01-30T16:31:43;96907.56;;;11.41;45.48
83104;BME280;72975;48.134;11.630;2024-01-30T16:34:27;96909.97;;;11.59;44.76
83104;BME280;72975;48.134;11.630;2024-01-30T16:37:26;96911.91;;;11.63;44.95
83104;BME280;72975;48.134;11.630;2024-01-30T16:40:10;96909.75;;;11.60;44.84
83104;BME280;72975;48.134;11.630;2024-01-30T16:42:45;96913.03;;;11.11;46.10
83104;BME280;72975;48.134;11.630;2024-01-30T16:45:25;96917.06;;;10.67;47.50
83104;BME280;72975;48.134;11.630;2024-01-30T16:48:16;96924.78;;;10.50;48.46
83104;BME280;72975;48.134;11.630;2024-01-30T16:51:16;96925.84;;;10.37;48.75
83104;BME280;72975;48.134;11.630;2024-01-30T16:53:48;96925.47;;;10.22;48.79
83104;BME280;72975;48.134;11.630;2024-01-30T16:56:18;96919.19;;;10.11;49.06
83104;BME280;72975;48.134;11.630;2024-01-30T16:59:04;96925.84;;;10.37;47.28
83104;BME280;72975;48.134;11.630;2024-01-30T17:01:41;96933.53;;;10.20;48.83
83104;BME280;72975;48.134;11.630;2024-01-30T17:04:27;96926.16;;;10.52;46.53
83104;BME280;72975;48.134;11.630;2024-01-30T17:10:49;96940.66;;;10.13;46.35
83104;BME280;72975;48.134;11.630;2024-01-30T17:14:10;96936.22;;;10.14;46.46
83104;BME280;72975;48.134;11.630;2024-01-30T17:20:56;96936.16;;;10.67;43.08
83104;BME280;72975;48.134;11.630;2024-01-30T17:23:38;96946.41;;;10.04;43.30
83104;BME280;72975;48.134;11.630;2024-01-30T17:26:34;96939.03;;;10.01;43.23
83104;BME280;72975;48.134;11.630;2024-01-30T17:29:50;96945.94;;;10.48;42.68